Time,TemperatureF,DewpointF,PressureIn,WindDirection,WindDirectionDegrees,WindSpeedMPH,WindSpeedGustMPH,Humidity,HourlyPrecipIn,Conditions,Clouds,dailyrainin,SoftwareType,DateUTC
2017-10-17 00:00:00,40.5,38.3,30.32,SE,131,0.0,0.0,92,0.00,,,0.00,meteobridge,2017-10-17 04:00:00,
2017-10-17 00:05:00,40.3,38.1,30.32,SE,131,0.0,0.0,92,0.00,,,0.00,meteobridge,2017-10-17 04:05:00,
2017-10-17 00:11:00,40.1,37.9,30.32,SE,131,0.0,0.0,92,0.00,,,0.00,meteobridge,2017-10-17 04:11:00,
2017-10-17 00:16:00,39.7,37.6,30.33,SE,131,0.0,0.0,92,0.00,,,0.00,meteobridge,2017-10-17 04:16:00,
2017-10-17 00:21:00,39.4,37.2,30.32,SE,131,0.0,0.0,92,0.00,,,0.00,meteobridge,2017-10-17 04:21:00,
2017-10-17 00:26:00,38.8,36.7,30.32,SE,131,0.0,0.0,92,0.00,,,0.00,meteobridge,2017-10-17 04:26:00,
2017-10-17 00:31:00,38.5,36.3,30.32,SE,131,0.0,0.0,92,0.00,,,0.00,meteobridge,2017-10-17 04:31:00,
2017-10-17 00:36:00,38.1,36.0,30.32,SE,131,0.0,0.0,92,0.00,,,0.00,meteobridge,2017-10-17 04:36:00,
2017-10-17 00:42:00,38.1,36.3,30.32,SE,131,0.0,0.0,93,0.00,,,0.00,meteobridge,2017-10-17 04:42:00,
2017-10-17 00:47:00,38.1,36.3,30.32,SE,131,0.0,0.0,93,0.00,,,0.00,meteobridge,2017-10-17 04:47:00,
2017-10-17 00:52:00,38.1,36.3,30.32,SE,131,0.0,0.0,93,0.00,,,0.00,meteobridge,2017-10-17 04:52:00,
2017-10-17 00:57:00,38.1,36.3,30.32,SE,131,0.0,0.0,93,0.00,,,0.00,meteobridge,2017-10-17 04:57:00,
2017-10-17 01:02:00,38.1,36.3,30.32,SE,131,0.0,0.0,93,0.00,,,0.00,meteobridge,2017-10-17 05:02:00,
2017-10-17 01:07:00,38.1,36.3,30.32,SE,131,0.0,0.0,93,0.00,,,0.00,meteobridge,2017-10-17 05:07:00,
2017-10-17 01:12:00,38.1,36.5,30.32,SE,131,0.0,0.0,94,0.00,,,0.00,meteobridge,2017-10-17 05:12:00,
2017-10-17 01:17:00,38.3,36.7,30.32,SE,131,0.0,0.0,94,0.00,,,0.00,meteobridge,2017-10-17 05:17:00,
2017-10-17 01:22:00,38.7,37.0,30.32,SE,131,0.0,0.0,94,0.00,,,0.00,meteobridge,2017-10-17 05:22:00,
2017-10-17 01:27:00,39.0,37.8,30.32,SE,131,0.0,0.0,95,0.00,,,0.00,meteobridge,2017-10-17 05:27:00,
2017-10-17 01:32:00,39.2,37.9,30.32,SE,131,0.0,0.0,95,0.00,,,0.00,meteobridge,2017-10-17 05:32:00,
2017-10-17 01:37:00,39.6,38.3,30.32,SE,131,0.0,0.0,95,0.00,,,0.00,meteobridge,2017-10-17 05:37:00,
2017-10-17 01:42:00,39.6,38.3,30.32,SE,131,0.0,0.0,95,0.00,,,0.00,meteobridge,2017-10-17 05:42:00,
2017-10-17 01:47:00,39.4,37.8,30.32,SE,131,0.0,0.0,94,0.00,,,0.00,meteobridge,2017-10-17 05:47:00,
2017-10-17 01:52:00,39.0,37.4,30.32,SE,131,0.0,0.0,94,0.00,,,0.00,meteobridge,2017-10-17 05:52:00,
2017-10-17 01:58:00,39.0,37.8,30.32,SE,131,0.0,0.0,95,0.00,,,0.00,meteobridge,2017-10-17 05:58:00,
2017-10-17 02:03:00,39.0,37.8,30.32,SE,131,0.0,0.0,95,0.00,,,0.00,meteobridge,2017-10-17 06:03:00,
2017-10-17 02:08:00,39.0,37.8,30.32,SE,131,0.0,0.0,95,0.00,,,0.00,meteobridge,2017-10-17 06:08:00,
2017-10-17 02:13:00,39.0,37.8,30.32,SE,131,0.0,0.0,95,0.00,,,0.00,meteobridge,2017-10-17 06:13:00,
2017-10-17 02:18:00,39.2,37.9,30.32,SE,131,0.0,0.0,95,0.00,,,0.00,meteobridge,2017-10-17 06:18:00,
2017-10-17 02:23:00,39.2,37.9,30.32,SE,131,0.0,0.0,95,0.00,,,0.00,meteobridge,2017-10-17 06:23:00,
2017-10-17 02:28:00,39.2,37.9,30.32,SE,131,0.0,0.0,95,0.00,,,0.00,meteobridge,2017-10-17 06:28:00,
2017-10-17 02:33:00,39.0,37.8,30.32,SE,131,0.0,0.0,95,0.00,,,0.00,meteobridge,2017-10-17 06:33:00,
2017-10-17 02:38:00,38.8,37.6,30.32,SE,131,0.0,0.0,95,0.00,,,0.00,meteobridge,2017-10-17 06:38:00,
2017-10-17 02:43:00,38.7,37.4,30.33,SE,131,0.0,0.0,95,0.00,,,0.00,meteobridge,2017-10-17 06:43:00,
2017-10-17 02:48:00,38.5,37.2,30.33,SE,131,0.0,0.0,95,0.00,,,0.00,meteobridge,2017-10-17 06:48:00,
2017-10-17 02:53:00,38.7,37.4,30.33,SE,131,0.0,0.0,95,0.00,,,0.00,meteobridge,2017-10-17 06:53:00,
2017-10-17 02:58:00,38.8,37.6,30.33,SE,131,0.0,0.0,95,0.00,,,0.00,meteobridge,2017-10-17 06:58:00,
2017-10-17 03:03:00,39.0,37.8,30.33,SSE,148,0.0,0.0,95,0.00,,,0.00,meteobridge,2017-10-17 07:03:00,
2017-10-17 03:09:00,39.2,37.9,30.33,SSE,148,0.0,0.0,95,0.00,,,0.00,meteobridge,2017-10-17 07:09:00,
2017-10-17 03:14:00,39.4,38.1,30.32,SSE,148,0.0,0.0,95,0.00,,,0.00,meteobridge,2017-10-17 07:14:00,
2017-10-17 03:19:00,39.4,38.1,30.32,SSE,148,0.0,0.0,95,0.00,,,0.00,meteobridge,2017-10-17 07:19:00,
2017-10-17 03:24:00,39.2,37.9,30.33,SSE,148,0.0,0.0,95,0.00,,,0.00,meteobridge,2017-10-17 07:24:00,
2017-10-17 03:29:00,38.8,37.2,30.33,SSE,148,0.0,0.0,94,0.00,,,0.00,meteobridge,2017-10-17 07:29:00,
2017-10-17 03:34:00,38.5,36.9,30.33,SSE,148,0.0,0.0,94,0.00,,,0.00,meteobridge,2017-10-17 07:34:00,
2017-10-17 03:39:00,37.9,36.3,30.33,SSE,148,0.0,0.0,94,0.00,,,0.00,meteobridge,2017-10-17 07:39:00,
2017-10-17 03:44:00,37.9,36.3,30.33,SSE,148,0.0,0.0,94,0.00,,,0.00,meteobridge,2017-10-17 07:44:00,
2017-10-17 03:50:00,37.9,36.7,30.33,SSE,148,0.0,0.0,95,0.00,,,0.00,meteobridge,2017-10-17 07:50:00,
2017-10-17 03:55:00,38.1,36.9,30.33,SSE,148,0.0,0.0,95,0.00,,,0.00,meteobridge,2017-10-17 07:55:00,
2017-10-17 03:58:00,38.1,36.9,30.33,SSE,148,0.0,0.0,95,0.00,,,0.00,meteobridge,2017-10-17 07:58:00,
2017-10-17 04:04:00,37.9,36.7,30.33,SSE,148,0.0,0.0,95,0.00,,,0.00,meteobridge,2017-10-17 08:04:00,
2017-10-17 04:09:00,37.8,36.5,30.33,SSE,148,0.0,0.0,95,0.00,,,0.00,meteobridge,2017-10-17 08:09:00,
2017-10-17 04:14:00,37.6,36.3,30.33,SSE,148,0.0,0.0,95,0.00,,,0.00,meteobridge,2017-10-17 08:14:00,
2017-10-17 04:19:00,37.8,36.5,30.33,SSE,148,0.0,0.0,95,0.00,,,0.00,meteobridge,2017-10-17 08:19:00,
2017-10-17 04:25:00,37.6,36.3,30.33,SSE,148,0.0,0.0,95,0.00,,,0.00,meteobridge,2017-10-17 08:25:00,
2017-10-17 04:30:00,37.2,36.0,30.33,SSE,148,0.0,0.0,95,0.00,,,0.00,meteobridge,2017-10-17 08:30:00,
2017-10-17 04:35:00,37.2,36.0,30.33,SSE,148,0.0,0.0,95,0.00,,,0.00,meteobridge,2017-10-17 08:35:00,
2017-10-17 04:40:00,36.9,35.6,30.33,SSE,148,0.0,0.0,95,0.00,,,0.00,meteobridge,2017-10-17 08:40:00,
2017-10-17 04:46:00,37.0,35.8,30.33,SSE,148,0.0,0.0,95,0.00,,,0.00,meteobridge,2017-10-17 08:46:00,
2017-10-17 04:51:00,37.0,35.8,30.33,SSE,148,0.0,0.0,95,0.00,,,0.00,meteobridge,2017-10-17 08:51:00,
2017-10-17 04:56:00,37.4,36.3,30.34,SSE,148,0.0,0.0,96,0.00,,,0.00,meteobridge,2017-10-17 08:56:00,
2017-10-17 04:57:00,37.6,36.5,30.34,SSE,148,0.0,0.0,96,0.00,,,0.00,meteobridge,2017-10-17 08:57:00,
2017-10-17 05:02:00,38.1,37.0,30.34,SSE,148,0.0,0.0,96,0.00,,,0.00,meteobridge,2017-10-17 09:02:00,
2017-10-17 05:07:00,38.5,37.4,30.34,SSE,148,0.0,0.0,96,0.00,,,0.00,meteobridge,2017-10-17 09:07:00,
2017-10-17 05:13:00,38.7,37.4,30.34,SSE,148,0.0,0.0,95,0.00,,,0.00,meteobridge,2017-10-17 09:13:00,
2017-10-17 05:18:00,38.7,37.4,30.34,SSE,148,0.0,0.0,95,0.00,,,0.00,meteobridge,2017-10-17 09:18:00,
2017-10-17 05:23:00,38.8,37.6,30.34,SSE,149,0.0,0.0,95,0.00,,,0.00,meteobridge,2017-10-17 09:23:00,
2017-10-17 05:28:00,38.8,37.6,30.35,SSE,149,0.0,0.0,95,0.00,,,0.00,meteobridge,2017-10-17 09:28:00,
2017-10-17 05:33:00,38.8,37.2,30.35,SSE,149,0.0,0.0,94,0.00,,,0.00,meteobridge,2017-10-17 09:33:00,
2017-10-17 05:38:00,38.5,36.9,30.35,SSE,149,0.0,0.0,94,0.00,,,0.00,meteobridge,2017-10-17 09:38:00,
2017-10-17 05:44:00,38.5,36.9,30.35,SSE,149,0.0,0.0,94,0.00,,,0.00,meteobridge,2017-10-17 09:44:00,
2017-10-17 05:49:00,38.7,37.4,30.35,SSE,149,0.0,0.0,95,0.00,,,0.00,meteobridge,2017-10-17 09:49:00,
2017-10-17 05:54:00,38.8,37.6,30.35,SSE,149,0.0,0.0,95,0.00,,,0.00,meteobridge,2017-10-17 09:54:00,
2017-10-17 05:59:00,39.0,37.8,30.36,SSE,149,0.0,0.0,95,0.00,,,0.00,meteobridge,2017-10-17 09:59:00,
2017-10-17 06:04:00,39.2,37.9,30.36,SSE,149,0.0,0.0,95,0.00,,,0.00,meteobridge,2017-10-17 10:04:00,
2017-10-17 06:10:00,39.4,37.8,30.36,SSE,149,0.0,0.0,94,0.00,,,0.00,meteobridge,2017-10-17 10:10:00,
2017-10-17 06:15:00,39.4,37.8,30.36,SSE,149,0.0,0.0,94,0.00,,,0.00,meteobridge,2017-10-17 10:15:00,
2017-10-17 06:20:00,39.6,37.9,30.36,SSE,150,0.0,0.0,94,0.00,,,0.00,meteobridge,2017-10-17 10:20:00,
2017-10-17 06:25:00,39.9,38.1,30.36,South,169,0.0,0.0,93,0.00,,,0.00,meteobridge,2017-10-17 10:25:00,
2017-10-17 06:30:00,40.1,37.9,30.36,SW,214,0.0,0.0,92,0.00,,,0.00,meteobridge,2017-10-17 10:30:00,
2017-10-17 06:35:00,40.3,38.1,30.36,SSW,210,0.0,0.0,92,0.00,,,0.00,meteobridge,2017-10-17 10:35:00,
2017-10-17 06:40:00,40.3,37.9,30.36,SSW,210,0.0,0.0,91,0.00,,,0.00,meteobridge,2017-10-17 10:40:00,
2017-10-17 06:45:00,40.3,37.6,30.36,SSW,210,0.0,0.0,90,0.00,,,0.00,meteobridge,2017-10-17 10:45:00,
2017-10-17 06:51:00,40.1,37.4,30.37,SSW,201,0.0,0.0,90,0.00,,,0.00,meteobridge,2017-10-17 10:51:00,
2017-10-17 06:56:00,39.9,37.2,30.37,SSW,201,0.0,0.0,90,0.00,,,0.00,meteobridge,2017-10-17 10:56:00,
2017-10-17 07:01:00,39.9,37.2,30.37,SSW,201,0.0,0.0,90,0.00,,,0.00,meteobridge,2017-10-17 11:01:00,
2017-10-17 07:06:00,39.7,37.0,30.37,SSW,201,0.0,0.0,90,0.00,,,0.00,meteobridge,2017-10-17 11:06:00,
2017-10-17 07:11:00,39.6,36.9,30.37,SSW,201,0.0,0.0,90,0.00,,,0.00,meteobridge,2017-10-17 11:11:00,
2017-10-17 07:16:00,39.7,37.4,30.37,SSW,210,0.0,0.0,91,0.00,,,0.00,meteobridge,2017-10-17 11:16:00,
2017-10-17 07:21:00,39.9,37.2,30.37,SSW,207,0.0,0.0,90,0.00,,,0.00,meteobridge,2017-10-17 11:21:00,
2017-10-17 07:26:00,40.1,37.4,30.37,South,174,0.0,0.0,90,0.00,,,0.00,meteobridge,2017-10-17 11:26:00,
2017-10-17 07:31:00,39.9,36.9,30.37,South,174,0.0,0.0,89,0.00,,,0.00,meteobridge,2017-10-17 11:31:00,
2017-10-17 07:36:00,39.7,36.7,30.37,South,174,0.0,0.0,89,0.00,,,0.00,meteobridge,2017-10-17 11:36:00,
2017-10-17 07:41:00,39.6,36.5,30.37,South,174,0.0,0.0,89,0.00,,,0.00,meteobridge,2017-10-17 11:41:00,
2017-10-17 07:46:00,39.4,36.5,30.37,South,174,0.0,0.0,89,0.00,,,0.00,meteobridge,2017-10-17 11:46:00,
2017-10-17 07:51:00,39.2,36.5,30.37,South,174,0.0,0.0,90,0.00,,,0.00,meteobridge,2017-10-17 11:51:00,
2017-10-17 07:56:00,39.4,37.0,30.37,South,174,0.0,0.0,91,0.00,,,0.00,meteobridge,2017-10-17 11:56:00,
2017-10-17 08:01:00,39.6,37.2,30.37,South,174,0.0,0.0,91,0.00,,,0.00,meteobridge,2017-10-17 12:01:00,
2017-10-17 08:07:00,39.9,37.2,30.37,South,174,0.0,0.0,90,0.00,,,0.00,meteobridge,2017-10-17 12:07:00,
2017-10-17 08:12:00,40.6,37.9,30.38,South,174,0.0,0.0,90,0.00,,,0.00,meteobridge,2017-10-17 12:12:00,
2017-10-17 08:17:00,41.7,39.0,30.37,South,174,0.0,0.0,90,0.00,,,0.00,meteobridge,2017-10-17 12:17:00,
2017-10-17 08:22:00,42.6,39.4,30.37,South,174,0.0,0.0,88,0.00,,,0.00,meteobridge,2017-10-17 12:22:00,
2017-10-17 08:27:00,43.3,39.7,30.37,South,174,0.0,0.0,87,0.00,,,0.00,meteobridge,2017-10-17 12:27:00,
2017-10-17 08:32:00,44.1,39.9,30.38,South,174,0.0,0.0,85,0.00,,,0.00,meteobridge,2017-10-17 12:32:00,
2017-10-17 08:37:00,45.0,40.5,30.38,South,174,0.0,0.0,84,0.00,,,0.00,meteobridge,2017-10-17 12:37:00,
2017-10-17 08:42:00,45.7,40.5,30.39,SW,219,0.0,0.0,82,0.00,,,0.00,meteobridge,2017-10-17 12:42:00,
2017-10-17 08:47:00,45.7,39.9,30.39,SSW,213,2.0,4.0,80,0.00,,,0.00,meteobridge,2017-10-17 12:47:00,
2017-10-17 08:52:00,45.9,40.1,30.39,SW,218,0.0,1.0,80,0.00,,,0.00,meteobridge,2017-10-17 12:52:00,
2017-10-17 08:57:00,46.2,40.6,30.39,SW,218,0.0,0.0,81,0.00,,,0.00,meteobridge,2017-10-17 12:57:00,
2017-10-17 09:02:00,47.1,41.5,30.39,SSW,210,0.0,0.0,81,0.00,,,0.00,meteobridge,2017-10-17 13:02:00,
2017-10-17 09:07:00,47.8,41.9,30.39,SSW,210,2.0,3.0,80,0.00,,,0.00,meteobridge,2017-10-17 13:07:00,
2017-10-17 09:12:00,48.4,42.4,30.39,SSW,208,4.0,4.0,80,0.00,,,0.00,meteobridge,2017-10-17 13:12:00,
2017-10-17 09:18:00,48.6,42.6,30.39,SW,215,4.0,6.0,80,0.00,,,0.00,meteobridge,2017-10-17 13:18:00,
2017-10-17 09:23:00,48.9,42.6,30.39,SW,231,4.0,7.0,79,0.00,,,0.00,meteobridge,2017-10-17 13:23:00,
2017-10-17 09:28:00,49.3,42.4,30.39,SW,224,2.9,5.0,77,0.00,,,0.00,meteobridge,2017-10-17 13:28:00,
2017-10-17 09:33:00,49.6,42.4,30.39,SSW,212,6.0,7.0,76,0.00,,,0.00,meteobridge,2017-10-17 13:33:00,
2017-10-17 09:38:00,50.2,43.0,30.39,SW,214,4.0,6.0,76,0.00,,,0.00,meteobridge,2017-10-17 13:38:00,
2017-10-17 09:43:00,50.7,42.8,30.39,SSW,208,4.0,6.0,74,0.00,,,0.00,meteobridge,2017-10-17 13:43:00,
2017-10-17 09:48:00,51.3,43.3,30.39,SSW,203,4.0,6.0,74,0.00,,,0.00,meteobridge,2017-10-17 13:48:00,
2017-10-17 09:53:00,51.6,42.1,30.39,SW,220,6.0,10.0,70,0.00,,,0.00,meteobridge,2017-10-17 13:53:00,
2017-10-17 09:58:00,52.0,42.1,30.39,SW,218,6.9,10.0,69,0.00,,,0.00,meteobridge,2017-10-17 13:58:00,
2017-10-17 10:03:00,52.3,42.4,30.39,SW,229,8.1,9.0,69,0.00,,,0.00,meteobridge,2017-10-17 14:03:00,
2017-10-17 10:08:00,52.5,42.3,30.39,SW,216,4.0,10.0,68,0.00,,,0.00,meteobridge,2017-10-17 14:08:00,
2017-10-17 10:13:00,53.2,43.7,30.39,SW,231,6.0,7.0,70,0.00,,,0.00,meteobridge,2017-10-17 14:13:00,
2017-10-17 10:18:00,53.8,42.6,30.39,WSW,237,6.0,9.0,66,0.00,,,0.00,meteobridge,2017-10-17 14:18:00,
2017-10-17 10:23:00,54.1,42.3,30.39,SW,229,6.0,10.0,64,0.00,,,0.00,meteobridge,2017-10-17 14:23:00,
2017-10-17 10:28:00,54.3,42.4,30.39,WSW,245,6.0,8.0,64,0.00,,,0.00,meteobridge,2017-10-17 14:28:00,
2017-10-17 10:34:00,54.9,43.0,30.39,WSW,248,6.0,8.0,64,0.00,,,0.00,meteobridge,2017-10-17 14:34:00,
2017-10-17 10:39:00,55.0,41.9,30.39,SW,231,8.1,10.0,61,0.00,,,0.00,meteobridge,2017-10-17 14:39:00,
2017-10-17 10:44:00,55.4,41.4,30.39,WSW,244,8.9,10.0,59,0.00,,,0.00,meteobridge,2017-10-17 14:44:00,
2017-10-17 10:49:00,55.6,41.0,30.39,WSW,255,8.9,10.0,58,0.00,,,0.00,meteobridge,2017-10-17 14:49:00,
2017-10-17 10:54:00,55.8,41.2,30.39,WSW,242,6.0,10.0,58,0.00,,,0.00,meteobridge,2017-10-17 14:54:00,
2017-10-17 10:59:00,56.1,41.9,30.38,WSW,249,10.1,10.1,59,0.00,,,0.00,meteobridge,2017-10-17 14:59:00,
2017-10-17 11:04:00,56.7,42.1,30.38,SW,223,8.9,12.0,58,0.00,,,0.00,meteobridge,2017-10-17 15:04:00,
2017-10-17 11:09:00,56.5,41.0,30.38,West,262,8.1,11.0,56,0.00,,,0.00,meteobridge,2017-10-17 15:09:00,
2017-10-17 11:14:00,56.5,41.0,30.38,West,267,4.9,12.0,56,0.00,,,0.00,meteobridge,2017-10-17 15:14:00,
2017-10-17 11:19:00,56.7,40.6,30.38,WSW,253,8.9,13.0,55,0.00,,,0.00,meteobridge,2017-10-17 15:19:00,
2017-10-17 11:24:00,56.8,40.5,30.38,SSW,212,6.0,11.0,54,0.00,,,0.00,meteobridge,2017-10-17 15:24:00,
2017-10-17 11:29:00,57.0,40.1,30.38,SW,231,6.9,11.0,53,0.00,,,0.00,meteobridge,2017-10-17 15:29:00,
2017-10-17 11:35:00,57.6,40.6,30.38,WSW,240,10.1,11.0,53,0.00,,,0.00,meteobridge,2017-10-17 15:35:00,
2017-10-17 11:40:00,57.7,39.7,30.38,WSW,257,6.9,14.0,51,0.00,,,0.00,meteobridge,2017-10-17 15:40:00,
2017-10-17 11:45:00,57.9,40.5,30.37,WSW,252,4.9,11.0,52,0.00,,,0.00,meteobridge,2017-10-17 15:45:00,
2017-10-17 11:50:00,58.3,40.3,30.38,WSW,253,8.9,12.0,51,0.00,,,0.00,meteobridge,2017-10-17 15:50:00,
2017-10-17 11:55:00,58.3,39.7,30.37,SSW,212,11.0,14.0,50,0.00,,,0.00,meteobridge,2017-10-17 15:55:00,
2017-10-17 12:01:00,58.3,39.2,30.37,WSW,255,12.1,14.0,49,0.00,,,0.00,meteobridge,2017-10-17 16:01:00,
2017-10-17 12:06:00,58.3,39.2,30.37,SW,215,4.9,10.0,49,0.00,,,0.00,meteobridge,2017-10-17 16:06:00,
2017-10-17 12:11:00,58.8,40.3,30.37,SW,229,8.1,10.0,50,0.00,,,0.00,meteobridge,2017-10-17 16:11:00,
2017-10-17 12:16:00,59.2,39.6,30.37,West,260,8.1,15.0,48,0.00,,,0.00,meteobridge,2017-10-17 16:16:00,
2017-10-17 12:21:00,59.2,39.6,30.37,SW,220,11.0,11.0,48,0.00,,,0.00,meteobridge,2017-10-17 16:21:00,
2017-10-17 12:26:00,59.4,40.3,30.36,WSW,248,8.9,10.0,49,0.00,,,0.00,meteobridge,2017-10-17 16:26:00,
2017-10-17 12:31:00,59.4,40.3,30.36,West,262,6.9,10.0,49,0.00,,,0.00,meteobridge,2017-10-17 16:31:00,
2017-10-17 12:36:00,59.5,39.9,30.36,WSW,248,6.0,10.0,48,0.00,,,0.00,meteobridge,2017-10-17 16:36:00,
2017-10-17 12:41:00,59.7,40.5,30.36,WSW,246,8.9,11.0,49,0.00,,,0.00,meteobridge,2017-10-17 16:41:00,
2017-10-17 12:46:00,59.9,40.6,30.35,WSW,257,10.1,12.0,49,0.00,,,0.00,meteobridge,2017-10-17 16:46:00,
2017-10-17 12:51:00,60.1,40.8,30.35,WSW,250,10.1,12.0,49,0.00,,,0.00,meteobridge,2017-10-17 16:51:00,
2017-10-17 12:56:00,60.1,40.8,30.35,WSW,255,4.9,10.0,49,0.00,,,0.00,meteobridge,2017-10-17 16:56:00,
2017-10-17 13:01:00,60.6,41.4,30.35,SSW,213,10.1,14.0,49,0.00,,,0.00,meteobridge,2017-10-17 17:01:00,
2017-10-17 13:07:00,60.6,40.8,30.35,West,264,12.1,12.1,48,0.00,,,0.00,meteobridge,2017-10-17 17:07:00,
2017-10-17 13:12:00,60.4,41.2,30.35,SW,223,2.0,7.0,49,0.00,,,0.00,meteobridge,2017-10-17 17:12:00,
2017-10-17 13:17:00,60.8,42.1,30.34,South,186,4.9,14.0,50,0.00,,,0.00,meteobridge,2017-10-17 17:17:00,
2017-10-17 13:22:00,61.2,40.3,30.34,SW,231,6.0,9.0,46,0.00,,,0.00,meteobridge,2017-10-17 17:22:00,
2017-10-17 13:27:00,61.3,41.0,30.34,WSW,240,4.9,9.0,47,0.00,,,0.00,meteobridge,2017-10-17 17:27:00,
2017-10-17 13:32:00,61.3,41.5,30.34,SW,217,10.1,11.0,48,0.00,,,0.00,meteobridge,2017-10-17 17:32:00,
2017-10-17 13:37:00,61.5,41.2,30.34,West,278,6.9,11.0,47,0.00,,,0.00,meteobridge,2017-10-17 17:37:00,
2017-10-17 13:42:00,61.3,40.5,30.33,WSW,256,8.9,13.0,46,0.00,,,0.00,meteobridge,2017-10-17 17:42:00,
2017-10-17 13:47:00,61.9,41.4,30.33,SSE,148,8.1,8.1,47,0.00,,,0.00,meteobridge,2017-10-17 17:47:00,
2017-10-17 13:53:00,62.4,41.9,30.33,WSW,239,12.1,12.1,47,0.00,,,0.00,meteobridge,2017-10-17 17:53:00,